Terminal Aerodrome Forecast
Issued by NWS

Home | Current Version | Previous Version | Text Only | Print | Product List | Glossary Off
Versions: 1 2 3 4 5 6 7 8 9 10 11 12 13 14

469
FTUS43 KMPX 041426 AAA
TAFRWF
TAF AMD
KRWF 041426Z 0414/0512 24008KT 3SM -SN SCT015 OVC025
      TEMPO 0414/0415 1SM -SN BR OVC015
     FM041600 31010KT P6SM OVC025
     FM042000 31008KT P6SM SCT020
     FM050400 29005KT P6SM BKN250=

USA.gov is the U.S. government's official web portal to all federal, state and local government web resources and services.